FW6314 Weather Reports


Display with metric or nautical units.
time (UTC)temp
F
wind
direction
speed
MPH
gust
MPH
rain 1hr
in
rain 24hr
in
rain mn
in
humidity
%
barometer
mb
20200221121745 44 349 7.0 21.0 0.00 0.32 0.00 85 1025.5
20200221120105 44 74 7.0 18.0 0.00 0.32 0.00 86 1025.2
20200221114637 44 340 5.0 15.0 0.00 0.32 0.00 88 1025.0
20200221113126 44 42 6.0 14.0 0.00 0.32 0.00 88 1024.6
20200221111625 44 348 5.0 16.0 0.00 0.32 0.00 88 1024.4
20200221110120 44 32 9.0 16.0 0.00 0.32 0.00 88 1024.2
20200221104756 44 347 5.0 15.0 0.00 0.32 0.00 89 1024.1
20200221103127 44 73 9.0 18.0 0.00 0.32 0.00 88 1024.2
20200221101802 44 323 10.0 20.0 0.00 0.32 0.00 89 1023.8
20200221100114 44 42 8.0 21.0 0.00 0.32 0.00 89 1023.8
20200221094729 44 28 8.0 21.0 0.00 0.32 0.00 88 1023.2
20200221093232 44 54 8.0 29.0 0.00 0.32 0.00 88 1022.9
20200221091644 44 5 8.0 22.0 0.00 0.32 0.00 90 1022.8
20200221090151 44 5 8.0 22.0 0.00 0.32 0.00 90 1022.9
20200221084750 45 5 8.0 21.0 0.00 0.32 0.00 90 1022.7
20200221083135 45 26 7.0 18.0 0.00 0.32 0.00 91 1022.6
20200221081727 44 51 9.0 22.0 0.00 0.32 0.00 92 1022.6
20200221080204 45 326 9.0 20.0 0.00 0.32 0.00 92 1022.5
20200221074758 45 38 10.0 19.0 0.00 0.32 0.00 93 1022.5
20200221073157 45 342 7.0 19.0 0.00 0.32 0.00 93 1022.4
20200221071626 45 18 9.0 20.0 0.00 0.32 0.00 93 1022.4
20200221070107 46 314 8.0 22.0 0.00 0.32 0.00 93 1022.3
20200221064701 46 35 9.0 17.0 0.00 0.32 0.00 94 1022.1
20200221063129 46 333 9.0 23.0 0.00 0.32 0.00 94 1022.0
20200221061623 46 5 9.0 20.0 0.00 0.32 0.00 94 1021.9
20200221060124 46 65 9.0 22.0 0.00 0.32 0.00 94 1021.8
20200221054745 46 15 9.0 20.0 0.00 0.32 0.00 93 1021.8
20200221053149 46 345 9.0 20.0 0.00 0.32 0.00 94 1022.1
20200221051608 46 31 11.0 22.0 0.00 0.32 0.00 94 1021.8
20200221050127 46 14 8.0 21.0 0.00 0.32 0.00 94 1021.8
20200221044623 47 69 9.0 18.0 0.00 0.32 0.32 95 1022.0
20200221043138 47 350 6.0 17.0 0.00 0.32 0.32 95 1021.7
20200221041659 47 55 9.0 19.0 0.01 0.32 0.32 95 1021.3
20200221040213 48 18 5.0 18.0 0.01 0.32 0.32 96 1021.4
20200221034637 48 355 9.0 21.0 0.01 0.32 0.32 96 1021.3
20200221033305 48 20 9.0 22.0 0.03 0.32 0.32 96 1020.9
20200221031725 49 11 6.0 17.0 0.02 0.31 0.31 95 1020.8
20200221030142 49 46 5.0 18.0 0.02 0.31 0.31 96 1020.5
20200221024828 49 80 6.0 16.0 0.02 0.31 0.31 96 1020.0
20200221023131 50 64 7.0 17.0 0.00 0.29 0.29 96 1019.5
20200221021557 50 49 8.0 16.0 0.00 0.29 0.29 95 1019.3
20200221020237 51 80 11.0 18.0 0.08 0.29 0.29 96 1019.2
20200221014710 51 69 7.0 17.0 0.11 0.29 0.29 97 1018.9
20200221013122 50 65 10.0 19.0 0.12 0.29 0.29 96 1018.8
20200221011618 51 37 9.0 20.0 0.18 0.29 0.29 97 1018.5
20200221010141 52 26 9.0 20.0 0.18 0.21 0.21 97 1018.5
20200221004649 54 76 12.0 24.0 0.15 0.18 0.18 97 1017.9
20200221003202 55 71 11.0 18.0 0.14 0.17 0.17 97 1017.5
20200221001609 58 49 6.0 20.0 0.08 0.11 0.11 97 1017.0
20200221000151 63 70 6.0 10.0 0.00 0.03 0.03 99 1016.9
20200220234657 63 108 6.0 8.0 0.00 0.03 0.03 99 1016.8
20200220233134 63 92 5.0 8.0 0.00 0.03 0.03 99 1016.8
20200220231632 63 102 3.0 7.0 0.01 0.03 0.03 99 1016.8
20200220230125 63 116 4.0 7.0 0.02 0.03 0.03 99 1016.6
20200220224731 63 102 3.0 6.0 0.03 0.03 0.03 99 1016.7
20200220223142 63 109 5.0 7.0 0.03 0.03 0.03 99 1016.5
20200220221729 63 109 4.0 6.0 0.02 0.02 0.02 98 1016.5
20200220220140 63 98 3.0 7.0 0.01 0.01 0.01 98 1016.6
20200220214656 63 101 5.0 7.0 0.00 0.00 0.00 98 1016.5
20200220213145 63 109 4.0 6.0 0.00 0.00 0.00 98 1016.6
20200220211754 63 109 3.0 6.0 0.00 0.00 0.00 98 1016.8
20200220210245 63 77 1.0 4.0 0.00 0.00 0.00 98 1017.1
20200220204609 63 63 1.0 3.0 0.00 0.00 0.00 98 1017.0
20200220203131 63 56 0.0 2.0 0.00 0.00 0.00 98 1017.3
20200220201706 63 63 1.0 3.0 0.00 0.00 0.00 98 1017.3
20200220200113 63 38 1.0 3.0 0.00 0.00 0.00 98 1017.3
20200220194600 63 24 1.0 3.0 0.00 0.00 0.00 98 1017.4
20200220193242 64 88 2.0 3.0 0.00 0.00 0.00 98 1017.7
20200220191636 63 105 1.0 3.0 0.00 0.00 0.00 98 1018.0
20200220190229 63 0 0.0 2.0 0.00 0.00 0.00 98 1018.2
20200220184635 63 0 0.0 2.0 0.00 0.00 0.00 97 1018.1
20200220183144 63 105 0.0 2.0 0.00 0.00 0.00 97 1018.5
20200220181649 63 105 0.0 3.0 0.00 0.00 0.00 97 1019.0
20200220180154 63 94 1.0 3.0 0.00 0.00 0.00 97 1019.0
20200220174713 63 133 1.0 2.0 0.00 0.00 0.00 96 1019.3
20200220173209 63 133 3.0 5.0 0.00 0.00 0.00 96 1019.4
20200220171611 63 139 3.0 5.0 0.00 0.00 0.00 96 1019.5
20200220170209 63 136 7.0 11.0 0.00 0.00 0.00 96 1019.5
20200220164617 63 136 7.0 10.0 0.00 0.00 0.00 95 1019.9
20200220163156 63 135 5.0 8.0 0.00 0.00 0.00 95 1019.9
20200220161701 63 130 8.0 10.0 0.00 0.00 0.00 95 1020.0
20200220160119 63 125 7.0 10.0 0.00 0.00 0.00 95 1020.2
20200220154712 64 117 9.0 12.0 0.00 0.00 0.00 95 1020.0
20200220153140 63 96 10.0 13.0 0.00 0.00 0.00 95 1019.9
20200220151600 64 113 9.0 14.0 0.00 0.00 0.00 95 1020.0
20200220150137 63 107 11.0 16.0 0.00 0.00 0.00 95 1019.6
20200220144719 64 96 8.0 13.0 0.00 0.00 0.00 95 1019.8
20200220143114 63 94 10.0 15.0 0.00 0.00 0.00 96 1019.3
20200220141618 64 107 11.0 15.0 0.00 0.00 0.00 95 1019.3
20200220140120 63 79 10.0 16.0 0.00 0.00 0.00 96 1019.7
20200220134706 63 89 12.0 17.0 0.00 0.00 0.00 96 1019.5
20200220133157 63 78 13.0 19.0 0.00 0.00 0.00 96 1019.2
20200220131759 63 94 10.0 18.0 0.00 0.00 0.00 97 1019.6
20200220130214 63 98 13.0 17.0 0.00 0.00 0.00 96 1019.6
20200220124815 63 103 8.0 14.0 0.00 0.00 0.00 96 1019.7
20200220123206 63 78 6.0 16.0 0.00 0.00 0.00 97 1019.9